Kezdőlap
METAR-TAF:

METAR-TAF

Repülőterek :

Kasane, Botswana

földrajzi szélesség: 17-49S, földrajzi hosszúság: 025-09E, magasság: 968 m

Jelenlegi meteorológiai megfigyelések

A jelentés 6 órával és 31 perccel ezelõtt készült, 17:00 UTC
Dél-délkeleti szél 6 kt
Hőmérséklet 19°C
Páratartalom 56%
Légköri nyomás 1019 hPa
Látótávolság 10 km, vagy több
felhőtlen 1500 m magasságban, és nincs gomolyfelhõ

METAR: FBKE 201700Z 15006KT CAVOK 19/10 Q1019

Idő: 01:31 (23:31 UTC)


TAF: hiányzik

Meteorológiai megfigyelések és előrejelzések több, mint 4000 repülőtéren (METAR és TAF jelentéseket).

A térképen piros és sárga pontok jelzik az elérhető meteorológiai állomásokat.

Mozgassa az egeret a pont fölött, hogy megjelenjen az állomás neve.

Azután kattintson az időjárási megfigyelések és előrejelzések megtekintéséhez.

A térkép megváltoztatása: kattintson a fekete keresztel jelölt zöld gombra ráközelítéshez, a vonallal jelölt zöld gombra távolításhoz, vagy a zöld nyilakra a szomszédos térképek eléréséhez.


METAR-TAF: